sensor_id;sensor_type;location;lat;lon;timestamp;temperature;humidity
19363;DHT22;9817;50.80926400;5.16316200;2023-02-15T00:00:15;5.60;99.90
19363;DHT22;9817;50.80926400;5.16316200;2023-02-15T00:02:41;5.40;99.90
19363;DHT22;9817;50.80926400;5.16316200;2023-02-15T00:05:07;5.30;99.90
19363;DHT22;9817;50.80926400;5.16316200;2023-02-15T00:07:33;5.30;99.90
19363;DHT22;9817;50.80926400;5.16316200;2023-02-15T00:09:58;5.30;99.90
19363;DHT22;9817;50.80926400;5.16316200;2023-02-15T00:12:24;5.30;99.90
19363;DHT22;9817;50.80926400;5.16316200;2023-02-15T00:14:50;5.30;99.90
19363;DHT22;9817;50.80926400;5.16316200;2023-02-15T00:17:15;5.40;99.90
19363;DHT22;9817;50.80926400;5.16316200;2023-02-15T00:19:41;5.40;99.90
19363;DHT22;9817;50.80926400;5.16316200;2023-02-15T00:22:06;5.40;99.90
19363;DHT22;9817;50.80926400;5.16316200;2023-02-15T00:24:32;5.40;99.90
19363;DHT22;9817;50.80926400;5.16316200;2023-02-15T00:26:58;5.40;99.90
19363;DHT22;9817;50.80926400;5.16316200;2023-02-15T00:29:24;5.40;99.90
19363;DHT22;9817;50.80926400;5.16316200;2023-02-15T00:31:50;5.30;99.90
19363;DHT22;9817;50.80926400;5.16316200;2023-02-15T00:34:20;5.30;99.90
19363;DHT22;9817;50.80926400;5.16316200;2023-02-15T00:36:59;5.30;99.90
19363;DHT22;9817;50.80926400;5.16316200;2023-02-15T00:39:24;5.20;99.90
19363;DHT22;9817;50.80926400;5.16316200;2023-02-15T00:41:50;5.10;99.90
19363;DHT22;9817;50.80926400;5.16316200;2023-02-15T00:44:16;5.10;99.90
19363;DHT22;9817;50.80926400;5.16316200;2023-02-15T00:46:42;5.10;99.90
19363;DHT22;9817;50.80926400;5.16316200;2023-02-15T00:49:08;5.00;99.90
19363;DHT22;9817;50.80926400;5.16316200;2023-02-15T00:51:33;5.00;99.90
19363;DHT22;9817;50.80926400;5.16316200;2023-02-15T00:53:59;5.00;99.90
19363;DHT22;9817;50.80926400;5.16316200;2023-02-15T00:56:25;4.90;99.90
19363;DHT22;9817;50.80926400;5.16316200;2023-02-15T00:58:50;4.80;99.90
19363;DHT22;9817;50.80926400;5.16316200;2023-02-15T01:01:18;4.90;99.90
19363;DHT22;9817;50.80926400;5.16316200;2023-02-15T01:03:44;4.80;99.90
19363;DHT22;9817;50.80926400;5.16316200;2023-02-15T01:06:11;4.80;99.90
19363;DHT22;9817;50.80926400;5.16316200;2023-02-15T01:08:37;4.80;99.90
19363;DHT22;9817;50.80926400;5.16316200;2023-02-15T01:11:14;4.80;99.90
19363;DHT22;9817;50.80926400;5.16316200;2023-02-15T01:13:40;4.80;99.90
19363;DHT22;9817;50.80926400;5.16316200;2023-02-15T01:16:07;4.70;99.90
19363;DHT22;9817;50.80926400;5.16316200;2023-02-15T01:18:34;4.70;99.90
19363;DHT22;9817;50.80926400;5.16316200;2023-02-15T01:21:00;4.70;99.90
19363;DHT22;9817;50.80926400;5.16316200;2023-02-15T01:23:26;4.70;99.90
19363;DHT22;9817;50.80926400;5.16316200;2023-02-15T01:25:51;4.70;99.90
19363;DHT22;9817;50.80926400;5.16316200;2023-02-15T01:28:17;4.70;99.90
19363;DHT22;9817;50.80926400;5.16316200;2023-02-15T01:30:43;4.80;99.90
19363;DHT22;9817;50.80926400;5.16316200;2023-02-15T01:33:10;4.80;99.90
19363;DHT22;9817;50.80926400;5.16316200;2023-02-15T01:35:43;4.70;99.90
19363;DHT22;9817;50.80926400;5.16316200;2023-02-15T01:38:09;4.60;99.90
19363;DHT22;9817;50.80926400;5.16316200;2023-02-15T01:40:34;4.60;99.90
19363;DHT22;9817;50.80926400;5.16316200;2023-02-15T01:43:00;4.50;99.90
19363;DHT22;9817;50.80926400;5.16316200;2023-02-15T01:45:31;4.50;99.90
19363;DHT22;9817;50.80926400;5.16316200;2023-02-15T01:48:22;4.60;99.90
19363;DHT22;9817;50.80926400;5.16316200;2023-02-15T01:50:54;4.50;99.90
19363;DHT22;9817;50.80926400;5.16316200;2023-02-15T01:56:33;4.40;99.90
19363;DHT22;9817;50.80926400;5.16316200;2023-02-15T01:59:04;4.40;99.90
19363;DHT22;9817;50.80926400;5.16316200;2023-02-15T02:01:31;4.40;99.90
19363;DHT22;9817;50.80926400;5.16316200;2023-02-15T02:06:26;4.30;99.90
19363;DHT22;9817;50.80926400;5.16316200;2023-02-15T02:08:54;4.30;99.90
19363;DHT22;9817;50.80926400;5.16316200;2023-02-15T02:11:20;4.30;99.90
19363;DHT22;9817;50.80926400;5.16316200;2023-02-15T02:13:46;4.20;99.90
19363;DHT22;9817;50.80926400;5.16316200;2023-02-15T02:23:51;4.10;99.90
19363;DHT22;9817;50.80926400;5.16316200;2023-02-15T02:26:54;4.10;99.90
19363;DHT22;9817;50.80926400;5.16316200;2023-02-15T02:35:14;3.90;99.90
19363;DHT22;9817;50.80926400;5.16316200;2023-02-15T02:43:11;3.90;99.90
19363;DHT22;9817;50.80926400;5.16316200;2023-02-15T02:45:44;3.90;99.90
19363;DHT22;9817;50.80926400;5.16316200;2023-02-15T02:48:19;3.80;99.90
19363;DHT22;9817;50.80926400;5.16316200;2023-02-15T02:50:45;3.80;99.90
19363;DHT22;9817;50.80926400;5.16316200;2023-02-15T02:53:10;3.80;99.90
19363;DHT22;9817;50.80926400;5.16316200;2023-02-15T02:55:49;3.90;99.90
19363;DHT22;9817;50.80926400;5.16316200;2023-02-15T02:58:36;3.90;99.90
19363;DHT22;9817;50.80926400;5.16316200;2023-02-15T03:01:15;3.80;99.90
19363;DHT22;9817;50.80926400;5.16316200;2023-02-15T03:03:45;3.80;99.90
19363;DHT22;9817;50.80926400;5.16316200;2023-02-15T03:06:15;3.80;99.90
19363;DHT22;9817;50.80926400;5.16316200;2023-02-15T03:08:47;3.70;99.90
19363;DHT22;9817;50.80926400;5.16316200;2023-02-15T03:11:14;3.70;99.90
19363;DHT22;9817;50.80926400;5.16316200;2023-02-15T03:13:40;3.70;99.90
19363;DHT22;9817;50.80926400;5.16316200;2023-02-15T03:16:08;3.70;99.90
19363;DHT22;9817;50.80926400;5.16316200;2023-02-15T03:18:57;3.70;99.90
19363;DHT22;9817;50.80926400;5.16316200;2023-02-15T03:24:03;3.70;99.90
19363;DHT22;9817;50.80926400;5.16316200;2023-02-15T03:26:32;3.70;99.90
19363;DHT22;9817;50.80926400;5.16316200;2023-02-15T03:29:00;3.70;99.90
19363;DHT22;9817;50.80926400;5.16316200;2023-02-15T03:31:30;3.70;99.90
19363;DHT22;9817;50.80926400;5.16316200;2023-02-15T03:34:03;3.70;99.90
19363;DHT22;9817;50.80926400;5.16316200;2023-02-15T03:36:39;3.60;99.90
19363;DHT22;9817;50.80926400;5.16316200;2023-02-15T03:41:36;3.50;99.90
19363;DHT22;9817;50.80926400;5.16316200;2023-02-15T03:44:10;3.50;99.90
19363;DHT22;9817;50.80926400;5.16316200;2023-02-15T03:46:58;3.50;99.90
19363;DHT22;9817;50.80926400;5.16316200;2023-02-15T03:49:48;3.40;99.90
19363;DHT22;9817;50.80926400;5.16316200;2023-02-15T03:52:16;3.40;99.90
19363;DHT22;9817;50.80926400;5.16316200;2023-02-15T03:54:43;3.20;99.90
19363;DHT22;9817;50.80926400;5.16316200;2023-02-15T03:57:19;3.20;99.90
19363;DHT22;9817;50.80926400;5.16316200;2023-02-15T04:00:26;3.20;99.90
19363;DHT22;9817;50.80926400;5.16316200;2023-02-15T04:05:53;3.10;99.90
19363;DHT22;9817;50.80926400;5.16316200;2023-02-15T04:08:19;3.10;99.90
19363;DHT22;9817;50.80926400;5.16316200;2023-02-15T04:10:44;2.70;99.90
19363;DHT22;9817;50.80926400;5.16316200;2023-02-15T04:13:22;2.60;99.90
19363;DHT22;9817;50.80926400;5.16316200;2023-02-15T04:15:48;2.50;99.90
19363;DHT22;9817;50.80926400;5.16316200;2023-02-15T04:18:41;2.60;99.90
19363;DHT22;9817;50.80926400;5.16316200;2023-02-15T04:21:27;2.70;99.90
19363;DHT22;9817;50.80926400;5.16316200;2023-02-15T04:24:12;2.80;99.90
19363;DHT22;9817;50.80926400;5.16316200;2023-02-15T04:26:57;2.90;99.90
19363;DHT22;9817;50.80926400;5.16316200;2023-02-15T04:29:23;3.00;99.90
19363;DHT22;9817;50.80926400;5.16316200;2023-02-15T04:31:50;2.90;99.90
19363;DHT22;9817;50.80926400;5.16316200;2023-02-15T04:34:16;3.00;99.90
19363;DHT22;9817;50.80926400;5.16316200;2023-02-15T04:36:42;3.00;99.90
19363;DHT22;9817;50.80926400;5.16316200;2023-02-15T04:39:08;3.00;99.90
19363;DHT22;9817;50.80926400;5.16316200;2023-02-15T04:41:35;3.10;99.90
19363;DHT22;9817;50.80926400;5.16316200;2023-02-15T04:44:01;3.10;99.90
19363;DHT22;9817;50.80926400;5.16316200;2023-02-15T04:46:27;3.10;99.90
19363;DHT22;9817;50.80926400;5.16316200;2023-02-15T04:48:53;3.10;99.90
19363;DHT22;9817;50.80926400;5.16316200;2023-02-15T04:51:19;3.10;99.90
19363;DHT22;9817;50.80926400;5.16316200;2023-02-15T04:53:45;3.00;99.90
19363;DHT22;9817;50.80926400;5.16316200;2023-02-15T04:56:10;3.00;99.90
19363;DHT22;9817;50.80926400;5.16316200;2023-02-15T04:58:36;3.00;99.90
19363;DHT22;9817;50.80926400;5.16316200;2023-02-15T05:01:02;2.90;99.90
19363;DHT22;9817;50.80926400;5.16316200;2023-02-15T05:03:28;3.00;99.90
19363;DHT22;9817;50.80926400;5.16316200;2023-02-15T05:05:54;2.90;99.90
19363;DHT22;9817;50.80926400;5.16316200;2023-02-15T05:08:20;2.90;99.90
19363;DHT22;9817;50.80926400;5.16316200;2023-02-15T05:10:48;2.90;99.90
19363;DHT22;9817;50.80926400;5.16316200;2023-02-15T05:13:14;2.90;99.90
19363;DHT22;9817;50.80926400;5.16316200;2023-02-15T05:15:39;2.80;99.90
19363;DHT22;9817;50.80926400;5.16316200;2023-02-15T05:18:05;2.90;99.90
19363;DHT22;9817;50.80926400;5.16316200;2023-02-15T05:20:32;2.80;99.90
19363;DHT22;9817;50.80926400;5.16316200;2023-02-15T05:22:58;2.70;99.90
19363;DHT22;9817;50.80926400;5.16316200;2023-02-15T05:25:24;2.60;99.90
19363;DHT22;9817;50.80926400;5.16316200;2023-02-15T05:28:10;2.50;99.90
19363;DHT22;9817;50.80926400;5.16316200;2023-02-15T05:30:48;2.40;99.90
19363;DHT22;9817;50.80926400;5.16316200;2023-02-15T05:33:14;2.30;99.90
19363;DHT22;9817;50.80926400;5.16316200;2023-02-15T05:35:40;2.30;99.90
19363;DHT22;9817;50.80926400;5.16316200;2023-02-15T05:38:05;2.40;99.90
19363;DHT22;9817;50.80926400;5.16316200;2023-02-15T05:40:31;2.30;99.90
19363;DHT22;9817;50.80926400;5.16316200;2023-02-15T05:42:57;2.00;99.90
19363;DHT22;9817;50.80926400;5.16316200;2023-02-15T05:45:23;1.70;99.90
19363;DHT22;9817;50.80926400;5.16316200;2023-02-15T05:47:48;1.80;99.90
19363;DHT22;9817;50.80926400;5.16316200;2023-02-15T05:50:14;1.70;99.90
19363;DHT22;9817;50.80926400;5.16316200;2023-02-15T05:52:40;1.60;99.90
19363;DHT22;9817;50.80926400;5.16316200;2023-02-15T05:55:05;1.60;99.90
19363;DHT22;9817;50.80926400;5.16316200;2023-02-15T05:57:32;1.60;99.90
19363;DHT22;9817;50.80926400;5.16316200;2023-02-15T05:59:57;1.50;99.90
19363;DHT22;9817;50.80926400;5.16316200;2023-02-15T06:02:23;1.40;99.90
19363;DHT22;9817;50.80926400;5.16316200;2023-02-15T06:04:49;1.40;99.90
19363;DHT22;9817;50.80926400;5.16316200;2023-02-15T06:07:14;1.40;99.90
19363;DHT22;9817;50.80926400;5.16316200;2023-02-15T06:09:40;1.40;99.90
19363;DHT22;9817;50.80926400;5.16316200;2023-02-15T06:12:05;1.30;99.90
19363;DHT22;9817;50.80926400;5.16316200;2023-02-15T06:14:31;1.20;99.90
19363;DHT22;9817;50.80926400;5.16316200;2023-02-15T06:16:56;1.20;99.90
19363;DHT22;9817;50.80926400;5.16316200;2023-02-15T06:19:22;1.40;99.90
19363;DHT22;9817;50.80926400;5.16316200;2023-02-15T06:21:48;1.40;99.90
19363;DHT22;9817;50.80926400;5.16316200;2023-02-15T06:24:14;1.60;99.90
19363;DHT22;9817;50.80926400;5.16316200;2023-02-15T06:26:40;1.70;99.90
19363;DHT22;9817;50.80926400;5.16316200;2023-02-15T06:29:06;1.70;99.90
19363;DHT22;9817;50.80926400;5.16316200;2023-02-15T06:31:31;1.80;99.90
19363;DHT22;9817;50.80926400;5.16316200;2023-02-15T06:33:57;1.90;99.90
19363;DHT22;9817;50.80926400;5.16316200;2023-02-15T06:36:27;2.00;99.90
19363;DHT22;9817;50.80926400;5.16316200;2023-02-15T06:38:54;2.10;99.90
19363;DHT22;9817;50.80926400;5.16316200;2023-02-15T06:41:19;2.10;99.90
19363;DHT22;9817;50.80926400;5.16316200;2023-02-15T06:43:45;2.10;99.90
19363;DHT22;9817;50.80926400;5.16316200;2023-02-15T06:46:10;2.10;99.90
19363;DHT22;9817;50.80926400;5.16316200;2023-02-15T06:48:36;2.20;99.90
19363;DHT22;9817;50.80926400;5.16316200;2023-02-15T06:51:02;2.20;99.90
19363;DHT22;9817;50.80926400;5.16316200;2023-02-15T06:53:27;2.30;99.90
19363;DHT22;9817;50.80926400;5.16316200;2023-02-15T06:56:03;2.30;99.90
19363;DHT22;9817;50.80926400;5.16316200;2023-02-15T06:58:40;2.40;99.90
19363;DHT22;9817;50.80926400;5.16316200;2023-02-15T07:01:06;2.50;99.90
19363;DHT22;9817;50.80926400;5.16316200;2023-02-15T07:03:33;2.40;99.90
19363;DHT22;9817;50.80926400;5.16316200;2023-02-15T07:06:00;2.20;99.90
19363;DHT22;9817;50.80926400;5.16316200;2023-02-15T07:08:26;2.20;99.90
19363;DHT22;9817;50.80926400;5.16316200;2023-02-15T07:10:53;2.20;99.90
19363;DHT22;9817;50.80926400;5.16316200;2023-02-15T07:13:19;2.40;99.90
19363;DHT22;9817;50.80926400;5.16316200;2023-02-15T07:15:45;2.50;99.90
19363;DHT22;9817;50.80926400;5.16316200;2023-02-15T07:18:11;2.60;99.90
19363;DHT22;9817;50.80926400;5.16316200;2023-02-15T07:20:37;2.70;99.90
19363;DHT22;9817;50.80926400;5.16316200;2023-02-15T07:23:04;2.90;99.90
19363;DHT22;9817;50.80926400;5.16316200;2023-02-15T07:25:30;2.80;99.90
19363;DHT22;9817;50.80926400;5.16316200;2023-02-15T07:27:57;2.80;99.90
19363;DHT22;9817;50.80926400;5.16316200;2023-02-15T07:30:23;2.70;99.90
19363;DHT22;9817;50.80926400;5.16316200;2023-02-15T07:32:49;2.90;99.90
19363;DHT22;9817;50.80926400;5.16316200;2023-02-15T07:35:33;3.10;99.90
19363;DHT22;9817;50.80926400;5.16316200;2023-02-15T07:38:00;3.10;99.90
19363;DHT22;9817;50.80926400;5.16316200;2023-02-15T07:40:26;3.20;99.90
19363;DHT22;9817;50.80926400;5.16316200;2023-02-15T07:42:52;3.30;99.90
19363;DHT22;9817;50.80926400;5.16316200;2023-02-15T07:45:20;3.40;99.90
19363;DHT22;9817;50.80926400;5.16316200;2023-02-15T07:47:46;3.30;99.90
19363;DHT22;9817;50.80926400;5.16316200;2023-02-15T07:50:12;3.40;99.90
19363;DHT22;9817;50.80926400;5.16316200;2023-02-15T07:52:37;4.10;99.90
19363;DHT22;9817;50.80926400;5.16316200;2023-02-15T07:55:03;5.40;99.90
19363;DHT22;9817;50.80926400;5.16316200;2023-02-15T07:57:29;6.70;99.90
19363;DHT22;9817;50.80926400;5.16316200;2023-02-15T07:59:54;8.20;99.90
19363;DHT22;9817;50.80926400;5.16316200;2023-02-15T08:02:20;9.10;99.90
19363;DHT22;9817;50.80926400;5.16316200;2023-02-15T08:04:45;9.40;99.90
19363;DHT22;9817;50.80926400;5.16316200;2023-02-15T08:07:11;9.30;99.90
19363;DHT22;9817;50.80926400;5.16316200;2023-02-15T08:09:37;9.30;99.90
19363;DHT22;9817;50.80926400;5.16316200;2023-02-15T08:12:02;9.30;99.90
19363;DHT22;9817;50.80926400;5.16316200;2023-02-15T08:14:29;9.40;99.90
19363;DHT22;9817;50.80926400;5.16316200;2023-02-15T08:16:55;10.00;99.90
19363;DHT22;9817;50.80926400;5.16316200;2023-02-15T08:19:26;10.50;99.90
19363;DHT22;9817;50.80926400;5.16316200;2023-02-15T08:22:01;11.10;99.90
19363;DHT22;9817;50.80926400;5.16316200;2023-02-15T08:24:30;11.70;99.90
19363;DHT22;9817;50.80926400;5.16316200;2023-02-15T08:26:56;12.00;99.90
19363;DHT22;9817;50.80926400;5.16316200;2023-02-15T08:29:27;12.00;99.90
19363;DHT22;9817;50.80926400;5.16316200;2023-02-15T08:31:55;11.90;99.90
19363;DHT22;9817;50.80926400;5.16316200;2023-02-15T08:34:23;11.50;99.90
19363;DHT22;9817;50.80926400;5.16316200;2023-02-15T08:36:49;11.10;99.90
19363;DHT22;9817;50.80926400;5.16316200;2023-02-15T08:39:16;10.90;99.90
19363;DHT22;9817;50.80926400;5.16316200;2023-02-15T08:41:43;10.90;99.90
19363;DHT22;9817;50.80926400;5.16316200;2023-02-15T08:44:09;10.80;99.90
19363;DHT22;9817;50.80926400;5.16316200;2023-02-15T08:46:38;10.40;99.90
19363;DHT22;9817;50.80926400;5.16316200;2023-02-15T08:49:04;10.30;99.90
19363;DHT22;9817;50.80926400;5.16316200;2023-02-15T08:51:32;10.90;99.90
19363;DHT22;9817;50.80926400;5.16316200;2023-02-15T08:54:00;11.40;99.90
19363;DHT22;9817;50.80926400;5.16316200;2023-02-15T08:56:29;11.40;99.90
19363;DHT22;9817;50.80926400;5.16316200;2023-02-15T08:58:55;11.80;99.90
19363;DHT22;9817;50.80926400;5.16316200;2023-02-15T09:01:26;12.30;99.90
19363;DHT22;9817;50.80926400;5.16316200;2023-02-15T09:03:57;13.00;99.90
19363;DHT22;9817;50.80926400;5.16316200;2023-02-15T09:06:23;13.50;99.90
19363;DHT22;9817;50.80926400;5.16316200;2023-02-15T09:08:50;13.60;99.90
19363;DHT22;9817;50.80926400;5.16316200;2023-02-15T09:11:18;13.60;99.90
19363;DHT22;9817;50.80926400;5.16316200;2023-02-15T09:14:00;13.70;99.90
19363;DHT22;9817;50.80926400;5.16316200;2023-02-15T09:16:29;13.70;99.90
19363;DHT22;9817;50.80926400;5.16316200;2023-02-15T09:18:55;13.60;99.90
19363;DHT22;9817;50.80926400;5.16316200;2023-02-15T09:21:23;13.20;99.90
19363;DHT22;9817;50.80926400;5.16316200;2023-02-15T09:23:51;13.10;99.90
19363;DHT22;9817;50.80926400;5.16316200;2023-02-15T09:26:20;12.80;99.90
19363;DHT22;9817;50.80926400;5.16316200;2023-02-15T09:28:47;12.70;99.90
19363;DHT22;9817;50.80926400;5.16316200;2023-02-15T09:31:16;12.60;99.90
19363;DHT22;9817;50.80926400;5.16316200;2023-02-15T09:33:44;12.90;99.90
19363;DHT22;9817;50.80926400;5.16316200;2023-02-15T09:36:31;13.30;99.90
19363;DHT22;9817;50.80926400;5.16316200;2023-02-15T09:39:00;13.00;99.90
19363;DHT22;9817;50.80926400;5.16316200;2023-02-15T09:47:14;12.60;99.90
19363;DHT22;9817;50.80926400;5.16316200;2023-02-15T09:55:13;12.80;99.90
19363;DHT22;9817;50.80926400;5.16316200;2023-02-15T10:03:07;12.90;99.90
19363;DHT22;9817;50.80926400;5.16316200;2023-02-15T10:17:48;13.50;99.90
19363;DHT22;9817;50.80926400;5.16316200;2023-02-15T10:21:14;13.50;99.90
19363;DHT22;9817;50.80926400;5.16316200;2023-02-15T10:25:57;13.70;99.90
19363;DHT22;9817;50.80926400;5.16316200;2023-02-15T10:29:03;13.90;99.90
19363;DHT22;9817;50.80926400;5.16316200;2023-02-15T10:31:44;13.80;99.90
19363;DHT22;9817;50.80926400;5.16316200;2023-02-15T10:58:55;15.00;99.90
19363;DHT22;9817;50.80926400;5.16316200;2023-02-15T11:01:44;15.00;99.90
19363;DHT22;9817;50.80926400;5.16316200;2023-02-15T11:04:31;15.10;99.90
19363;DHT22;9817;50.80926400;5.16316200;2023-02-15T11:07:06;14.80;99.90
19363;DHT22;9817;50.80926400;5.16316200;2023-02-15T11:09:41;14.70;99.90
19363;DHT22;9817;50.80926400;5.16316200;2023-02-15T11:12:12;14.70;99.90
19363;DHT22;9817;50.80926400;5.16316200;2023-02-15T11:14:58;14.80;99.90
19363;DHT22;9817;50.80926400;5.16316200;2023-02-15T11:17:36;14.90;99.90
19363;DHT22;9817;50.80926400;5.16316200;2023-02-15T11:20:25;14.80;99.90
19363;DHT22;9817;50.80926400;5.16316200;2023-02-15T11:22:53;14.70;99.90
19363;DHT22;9817;50.80926400;5.16316200;2023-02-15T11:25:28;14.60;99.90
19363;DHT22;9817;50.80926400;5.16316200;2023-02-15T11:27:55;14.60;99.90
19363;DHT22;9817;50.80926400;5.16316200;2023-02-15T11:30:23;14.50;99.90
19363;DHT22;9817;50.80926400;5.16316200;2023-02-15T11:32:58;14.40;99.90
19363;DHT22;9817;50.80926400;5.16316200;2023-02-15T11:35:42;14.50;99.90
19363;DHT22;9817;50.80926400;5.16316200;2023-02-15T11:38:24;14.60;99.90
19363;DHT22;9817;50.80926400;5.16316200;2023-02-15T11:40:58;14.70;99.90
19363;DHT22;9817;50.80926400;5.16316200;2023-02-15T11:43:49;14.50;99.90
19363;DHT22;9817;50.80926400;5.16316200;2023-02-15T11:46:17;14.60;99.90
19363;DHT22;9817;50.80926400;5.16316200;2023-02-15T11:48:45;14.50;99.90
19363;DHT22;9817;50.80926400;5.16316200;2023-02-15T11:51:21;14.40;99.90
19363;DHT22;9817;50.80926400;5.16316200;2023-02-15T11:53:48;14.30;99.90
19363;DHT22;9817;50.80926400;5.16316200;2023-02-15T11:56:21;14.20;99.90
19363;DHT22;9817;50.80926400;5.16316200;2023-02-15T11:59:00;14.30;99.90
19363;DHT22;9817;50.80926400;5.16316200;2023-02-15T12:01:40;14.30;99.90
19363;DHT22;9817;50.80926400;5.16316200;2023-02-15T12:04:30;14.70;99.90
19363;DHT22;9817;50.80926400;5.16316200;2023-02-15T12:09:59;14.70;99.90
19363;DHT22;9817;50.80926400;5.16316200;2023-02-15T12:12:31;14.70;99.90
19363;DHT22;9817;50.80926400;5.16316200;2023-02-15T12:14:59;14.60;99.90
19363;DHT22;9817;50.80926400;5.16316200;2023-02-15T12:17:31;14.40;99.90
19363;DHT22;9817;50.80926400;5.16316200;2023-02-15T12:20:43;14.60;99.90
19363;DHT22;9817;50.80926400;5.16316200;2023-02-15T12:23:02;14.80;99.90
19363;DHT22;9817;50.80926400;5.16316200;2023-02-15T12:27:54;14.80;99.90
19363;DHT22;9817;50.80926400;5.16316200;2023-02-15T12:30:31;14.90;99.90
19363;DHT22;9817;50.80926400;5.16316200;2023-02-15T12:33:20;15.00;99.90
19363;DHT22;9817;50.80926400;5.16316200;2023-02-15T12:35:47;15.00;99.90
19363;DHT22;9817;50.80926400;5.16316200;2023-02-15T12:38:24;15.30;99.90
19363;DHT22;9817;50.80926400;5.16316200;2023-02-15T12:40:59;15.50;99.90
19363;DHT22;9817;50.80926400;5.16316200;2023-02-15T12:43:29;15.50;99.90
19363;DHT22;9817;50.80926400;5.16316200;2023-02-15T12:46:23;15.40;99.90
19363;DHT22;9817;50.80926400;5.16316200;2023-02-15T12:49:24;15.10;99.90
19363;DHT22;9817;50.80926400;5.16316200;2023-02-15T12:51:58;15.20;99.90
19363;DHT22;9817;50.80926400;5.16316200;2023-02-15T12:57:27;15.30;99.90
19363;DHT22;9817;50.80926400;5.16316200;2023-02-15T13:04:54;15.40;99.90
19363;DHT22;9817;50.80926400;5.16316200;2023-02-15T13:07:21;15.40;99.90
19363;DHT22;9817;50.80926400;5.16316200;2023-02-15T13:09:47;15.50;99.90
19363;DHT22;9817;50.80926400;5.16316200;2023-02-15T13:12:18;15.50;99.90
19363;DHT22;9817;50.80926400;5.16316200;2023-02-15T13:14:48;15.40;99.90
19363;DHT22;9817;50.80926400;5.16316200;2023-02-15T13:17:17;15.30;99.90
19363;DHT22;9817;50.80926400;5.16316200;2023-02-15T13:19:52;15.20;99.90
19363;DHT22;9817;50.80926400;5.16316200;2023-02-15T13:22:28;15.10;99.90
19363;DHT22;9817;50.80926400;5.16316200;2023-02-15T13:25:00;15.00;99.90
19363;DHT22;9817;50.80926400;5.16316200;2023-02-15T13:27:37;15.30;99.90
19363;DHT22;9817;50.80926400;5.16316200;2023-02-15T13:30:20;15.30;99.90
19363;DHT22;9817;50.80926400;5.16316200;2023-02-15T13:32:51;15.40;99.90
19363;DHT22;9817;50.80926400;5.16316200;2023-02-15T13:35:18;15.50;99.90
19363;DHT22;9817;50.80926400;5.16316200;2023-02-15T13:38:06;15.60;99.90
19363;DHT22;9817;50.80926400;5.16316200;2023-02-15T13:46:18;15.40;99.90
19363;DHT22;9817;50.80926400;5.16316200;2023-02-15T13:48:59;15.50;99.90
19363;DHT22;9817;50.80926400;5.16316200;2023-02-15T13:51:40;15.40;99.90
19363;DHT22;9817;50.80926400;5.16316200;2023-02-15T14:10:54;15.50;99.90
19363;DHT22;9817;50.80926400;5.16316200;2023-02-15T14:21:26;15.70;99.90
19363;DHT22;9817;50.80926400;5.16316200;2023-02-15T14:27:08;16.00;99.90
19363;DHT22;9817;50.80926400;5.16316200;2023-02-15T14:32:31;16.00;99.90
19363;DHT22;9817;50.80926400;5.16316200;2023-02-15T14:35:00;16.00;99.90
19363;DHT22;9817;50.80926400;5.16316200;2023-02-15T14:40:37;16.30;99.90
19363;DHT22;9817;50.80926400;5.16316200;2023-02-15T14:49:42;16.20;99.90
19363;DHT22;9817;50.80926400;5.16316200;2023-02-15T15:05:22;16.00;99.90
19363;DHT22;9817;50.80926400;5.16316200;2023-02-15T15:07:28;15.90;99.90
19363;DHT22;9817;50.80926400;5.16316200;2023-02-15T15:13:36;15.80;99.90
19363;DHT22;9817;50.80926400;5.16316200;2023-02-15T15:16:53;15.60;99.90
19363;DHT22;9817;50.80926400;5.16316200;2023-02-15T15:22:22;15.50;99.90
19363;DHT22;9817;50.80926400;5.16316200;2023-02-15T15:27:51;15.60;99.90
19363;DHT22;9817;50.80926400;5.16316200;2023-02-15T15:41:00;15.60;99.90
19363;DHT22;9817;50.80926400;5.16316200;2023-02-15T15:50:23;15.40;99.90
19363;DHT22;9817;50.80926400;5.16316200;2023-02-15T15:52:55;15.30;99.90
19363;DHT22;9817;50.80926400;5.16316200;2023-02-15T15:55:25;15.20;99.90
19363;DHT22;9817;50.80926400;5.16316200;2023-02-15T15:58:03;15.10;99.90
19363;DHT22;9817;50.80926400;5.16316200;2023-02-15T16:00:37;14.90;99.90
19363;DHT22;9817;50.80926400;5.16316200;2023-02-15T16:03:05;14.80;99.90
19363;DHT22;9817;50.80926400;5.16316200;2023-02-15T16:05:38;14.80;99.90
19363;DHT22;9817;50.80926400;5.16316200;2023-02-15T16:08:04;14.60;99.90
19363;DHT22;9817;50.80926400;5.16316200;2023-02-15T16:10:31;14.50;99.90
19363;DHT22;9817;50.80926400;5.16316200;2023-02-15T16:12:59;14.50;99.90
19363;DHT22;9817;50.80926400;5.16316200;2023-02-15T16:15:36;14.40;99.90
19363;DHT22;9817;50.80926400;5.16316200;2023-02-15T16:18:15;14.30;99.90
19363;DHT22;9817;50.80926400;5.16316200;2023-02-15T16:20:50;14.20;99.90
19363;DHT22;9817;50.80926400;5.16316200;2023-02-15T16:29:12;14.00;99.90
19363;DHT22;9817;50.80926400;5.16316200;2023-02-15T16:31:38;13.90;99.90
19363;DHT22;9817;50.80926400;5.16316200;2023-02-15T16:34:09;13.70;99.90
19363;DHT22;9817;50.80926400;5.16316200;2023-02-15T16:36:41;13.60;99.90
19363;DHT22;9817;50.80926400;5.16316200;2023-02-15T16:39:10;13.50;99.90
19363;DHT22;9817;50.80926400;5.16316200;2023-02-15T16:41:39;13.50;99.90
19363;DHT22;9817;50.80926400;5.16316200;2023-02-15T16:44:14;13.40;99.90
19363;DHT22;9817;50.80926400;5.16316200;2023-02-15T16:46:43;13.40;99.90
19363;DHT22;9817;50.80926400;5.16316200;2023-02-15T16:49:22;13.30;99.90
19363;DHT22;9817;50.80926400;5.16316200;2023-02-15T16:52:10;13.20;99.90
19363;DHT22;9817;50.80926400;5.16316200;2023-02-15T16:54:41;13.10;99.90
19363;DHT22;9817;50.80926400;5.16316200;2023-02-15T16:57:17;13.00;99.90
19363;DHT22;9817;50.80926400;5.16316200;2023-02-15T16:59:47;12.90;99.90
19363;DHT22;9817;50.80926400;5.16316200;2023-02-15T17:02:23;12.70;99.90
19363;DHT22;9817;50.80926400;5.16316200;2023-02-15T17:10:34;12.40;99.90
19363;DHT22;9817;50.80926400;5.16316200;2023-02-15T17:13:19;12.30;99.90
19363;DHT22;9817;50.80926400;5.16316200;2023-02-15T17:18:32;12.20;99.90
19363;DHT22;9817;50.80926400;5.16316200;2023-02-15T17:21:10;12.20;99.90